KIMT/IMT METAR and TAF weather

Enter ICAO airport designator
Station Type Date Time Source
KIMT METAR 2022/06/26 06:54 UTC NOAA

KIMT 260654Z AUTO 28005KT 10SM CLR 19/18 A2985 RMK AO2 SLP106 T01940183


Station Type Date Time Source
KIMT Decoded METAR 2022/06/26 06:54 UTC NOAA

IRON MOUNTAIN FORD AIRPORT, MI, United States (KIMT) 45-49N 88-07W 349M
Jun 26, 2022 - 02:54 AM EDT / 2022.06.26 0654 UTC
Wind: from the W (280 degrees) at 6 MPH (5 KT):0
Visibility: 10 mile(s):0
Sky conditions: clear
Temperature: 66.9 F (19.4 C)
Dew Point: 64.9 F (18.3 C)
Relative Humidity: 93%
Pressure (altimeter): 29.85 in. Hg (1010 hPa)
ob: KIMT 260654Z AUTO 28005KT 10SM CLR 19/18 A2985 RMK AO2 SLP106 T01940183
cycle: 7

Station Type Date Time Source
KIMT TAF UTC NOAA

Error!

Example: see airport list